sensor_id;sensor_type;location;lat;lon;timestamp;pressure;altitude;pressure_sealevel;temperature;humidity
48800;BME280;34611;47.964;7.982;2023-04-27T00:01:43;96830.97;;;11.48;63.65
48800;BME280;34611;47.964;7.982;2023-04-27T00:08:44;96825.75;;;11.48;63.98
48800;BME280;34611;47.964;7.982;2023-04-27T00:15:44;96823.81;;;11.50;63.82
48800;BME280;34611;47.964;7.982;2023-04-27T00:22:44;96824.78;;;11.49;63.83
48800;BME280;34611;47.964;7.982;2023-04-27T00:29:45;96827.38;;;11.49;63.68
48800;BME280;34611;47.964;7.982;2023-04-27T00:36:45;96815.34;;;11.48;63.80
48800;BME280;34611;47.964;7.982;2023-04-27T00:43:46;96816.16;;;11.48;63.83
48800;BME280;34611;47.964;7.982;2023-04-27T00:50:46;96811.75;;;11.49;63.80
48800;BME280;34611;47.964;7.982;2023-04-27T00:57:46;96803.97;;;11.49;63.86
48800;BME280;34611;47.964;7.982;2023-04-27T01:04:47;96802.97;;;11.50;63.84
48800;BME280;34611;47.964;7.982;2023-04-27T01:11:49;96816.97;;;11.49;63.90
48800;BME280;34611;47.964;7.982;2023-04-27T01:18:49;96817.94;;;11.48;63.93
48800;BME280;34611;47.964;7.982;2023-04-27T01:25:50;96823.81;;;11.50;64.01
48800;BME280;34611;47.964;7.982;2023-04-27T01:32:50;96820.38;;;11.49;63.93
48800;BME280;34611;47.964;7.982;2023-04-27T01:39:52;96823.81;;;11.50;64.04
48800;BME280;34611;47.964;7.982;2023-04-27T01:46:53;96816.97;;;11.49;64.13
48800;BME280;34611;47.964;7.982;2023-04-27T01:53:53;96829.00;;;11.50;64.13
48800;BME280;34611;47.964;7.982;2023-04-27T02:00:53;96817.78;;;11.49;64.15
48800;BME280;34611;47.964;7.982;2023-04-27T02:07:53;96800.53;;;11.48;64.05
48800;BME280;34611;47.964;7.982;2023-04-27T02:14:55;96810.78;;;11.50;63.91
48800;BME280;34611;47.964;7.982;2023-04-27T02:21:57;96812.59;;;11.49;63.96
48800;BME280;34611;47.964;7.982;2023-04-27T02:28:58;96820.38;;;11.49;64.03
48800;BME280;34611;47.964;7.982;2023-04-27T02:35:58;96823.00;;;11.49;64.23
48800;BME280;34611;47.964;7.982;2023-04-27T02:42:58;96816.00;;;11.50;63.94
48800;BME280;34611;47.964;7.982;2023-04-27T02:49:59;96814.38;;;11.49;64.02
48800;BME280;34611;47.964;7.982;2023-04-27T02:57:00;96822.88;;;11.51;64.06
48800;BME280;34611;47.964;7.982;2023-04-27T03:04:00;96817.78;;;11.49;64.00
48800;BME280;34611;47.964;7.982;2023-04-27T03:11:01;96823.81;;;11.50;64.21
48800;BME280;34611;47.964;7.982;2023-04-27T03:18:02;96821.19;;;11.50;64.00
48800;BME280;34611;47.964;7.982;2023-04-27T03:25:03;96831.63;;;11.50;63.97
48800;BME280;34611;47.964;7.982;2023-04-27T03:32:04;96843.81;;;11.49;64.08
48800;BME280;34611;47.964;7.982;2023-04-27T03:39:04;96831.63;;;11.50;64.12
48800;BME280;34611;47.964;7.982;2023-04-27T03:46:04;96835.19;;;11.49;64.09
48800;BME280;34611;47.964;7.982;2023-04-27T03:53:05;96835.19;;;11.49;64.19
48800;BME280;34611;47.964;7.982;2023-04-27T04:00:06;96835.06;;;11.50;64.24
48800;BME280;34611;47.964;7.982;2023-04-27T04:07:12;96835.88;;;11.51;64.26
48800;BME280;34611;47.964;7.982;2023-04-27T04:14:13;96829.00;;;11.50;64.34
48800;BME280;34611;47.964;7.982;2023-04-27T04:21:14;96829.00;;;11.50;64.14
48800;BME280;34611;47.964;7.982;2023-04-27T04:28:14;96829.84;;;11.50;64.20
48800;BME280;34611;47.964;7.982;2023-04-27T04:35:15;96847.25;;;11.50;64.01
48800;BME280;34611;47.964;7.982;2023-04-27T04:42:18;96840.13;;;11.52;64.36
48800;BME280;34611;47.964;7.982;2023-04-27T04:49:20;96838.63;;;11.49;64.16
48800;BME280;34611;47.964;7.982;2023-04-27T04:56:20;96834.09;;;11.51;64.12
48800;BME280;34611;47.964;7.982;2023-04-27T05:03:20;96837.66;;;11.50;64.25
48800;BME280;34611;47.964;7.982;2023-04-27T05:10:20;96830.69;;;11.51;64.19
48800;BME280;34611;47.964;7.982;2023-04-27T05:17:21;96829.00;;;11.50;64.31
48800;BME280;34611;47.964;7.982;2023-04-27T05:24:21;96845.47;;;11.50;64.32
48800;BME280;34611;47.964;7.982;2023-04-27T05:31:21;96847.25;;;11.50;64.35
48800;BME280;34611;47.964;7.982;2023-04-27T05:38:23;96849.84;;;11.50;64.13
48800;BME280;34611;47.964;7.982;2023-04-27T05:45:23;96861.09;;;11.50;64.37
48800;BME280;34611;47.964;7.982;2023-04-27T05:52:23;96863.69;;;11.50;64.36
48800;BME280;34611;47.964;7.982;2023-04-27T05:59:29;96875.88;;;11.50;64.21
48800;BME280;34611;47.964;7.982;2023-04-27T06:06:30;96879.44;;;11.49;64.26
48800;BME280;34611;47.964;7.982;2023-04-27T06:13:31;96889.03;;;11.48;64.34
48800;BME280;34611;47.964;7.982;2023-04-27T06:20:32;96909.72;;;11.50;64.09
48800;BME280;34611;47.964;7.982;2023-04-27T06:27:33;96908.09;;;11.49;64.06
48800;BME280;34611;47.964;7.982;2023-04-27T06:34:33;96905.34;;;11.50;64.13
48800;BME280;34611;47.964;7.982;2023-04-27T06:41:34;96909.72;;;11.50;64.00
48800;BME280;34611;47.964;7.982;2023-04-27T06:48:34;96906.28;;;11.49;64.13
48800;BME280;34611;47.964;7.982;2023-04-27T06:55:34;96908.91;;;11.49;64.05
48800;BME280;34611;47.964;7.982;2023-04-27T07:02:35;96910.69;;;11.49;64.06
48800;BME280;34611;47.964;7.982;2023-04-27T07:09:35;96910.69;;;11.49;64.16
48800;BME280;34611;47.964;7.982;2023-04-27T07:16:35;96911.50;;;11.49;64.01
48800;BME280;34611;47.964;7.982;2023-04-27T07:23:36;96911.66;;;11.48;64.25
48800;BME280;34611;47.964;7.982;2023-04-27T07:30:36;96905.47;;;11.49;64.04
48800;BME280;34611;47.964;7.982;2023-04-27T07:37:36;96903.69;;;11.49;64.03
48800;BME280;34611;47.964;7.982;2023-04-27T07:44:37;96902.88;;;11.49;64.23
48800;BME280;34611;47.964;7.982;2023-04-27T07:51:37;96898.63;;;11.48;64.10
48800;BME280;34611;47.964;7.982;2023-04-27T07:58:38;96889.84;;;11.49;64.10
48800;BME280;34611;47.964;7.982;2023-04-27T08:05:38;96885.47;;;11.49;64.09
48800;BME280;34611;47.964;7.982;2023-04-27T08:12:39;96886.44;;;11.48;64.04
48800;BME280;34611;47.964;7.982;2023-04-27T08:19:39;96892.47;;;11.49;64.09
48800;BME280;34611;47.964;7.982;2023-04-27T08:26:40;96889.84;;;11.49;64.08
48800;BME280;34611;47.964;7.982;2023-04-27T08:33:41;96883.84;;;11.48;63.99
48800;BME280;34611;47.964;7.982;2023-04-27T08:40:42;96878.63;;;11.48;63.96
48800;BME280;34611;47.964;7.982;2023-04-27T08:47:42;96869.03;;;11.49;64.03
48800;BME280;34611;47.964;7.982;2023-04-27T08:54:43;96860.41;;;11.48;64.07
48800;BME280;34611;47.964;7.982;2023-04-27T09:01:47;96874.25;;;11.49;64.08
48800;BME280;34611;47.964;7.982;2023-04-27T09:08:47;96866.44;;;11.49;64.17
48800;BME280;34611;47.964;7.982;2023-04-27T09:15:49;96876.84;;;11.49;63.95
48800;BME280;34611;47.964;7.982;2023-04-27T09:22:50;96884.66;;;11.49;64.16
48800;BME280;34611;47.964;7.982;2023-04-27T09:29:51;96868.22;;;11.48;64.04
48800;BME280;34611;47.964;7.982;2023-04-27T09:36:52;96874.25;;;11.49;64.14
48800;BME280;34611;47.964;7.982;2023-04-27T09:43:52;96874.25;;;11.49;64.19
48800;BME280;34611;47.964;7.982;2023-04-27T09:50:54;96873.44;;;11.48;64.16
48800;BME280;34611;47.964;7.982;2023-04-27T09:57:57;96857.81;;;11.48;64.09
48800;BME280;34611;47.964;7.982;2023-04-27T10:05:14;96855.19;;;11.48;63.93
48800;BME280;34611;47.964;7.982;2023-04-27T10:12:16;96861.22;;;11.49;64.02
48800;BME280;34611;47.964;7.982;2023-04-27T10:19:17;96855.19;;;11.48;63.97
48800;BME280;34611;47.964;7.982;2023-04-27T10:26:21;96866.31;;;11.50;64.07
48800;BME280;34611;47.964;7.982;2023-04-27T10:33:22;96862.03;;;11.49;63.96
48800;BME280;34611;47.964;7.982;2023-04-27T10:40:31;96866.44;;;11.49;63.94
48800;BME280;34611;47.964;7.982;2023-04-27T10:47:41;96857.00;;;11.48;64.34
48800;BME280;34611;47.964;7.982;2023-04-27T10:54:44;96855.19;;;11.48;64.33
48800;BME280;34611;47.964;7.982;2023-04-27T11:01:47;96848.22;;;11.49;64.04
48800;BME280;34611;47.964;7.982;2023-04-27T11:08:47;96853.41;;;11.49;64.17
48800;BME280;34611;47.964;7.982;2023-04-27T11:15:48;96848.22;;;11.49;64.07
48800;BME280;34611;47.964;7.982;2023-04-27T11:22:49;96835.19;;;11.49;64.15
48800;BME280;34611;47.964;7.982;2023-04-27T11:29:50;96827.38;;;11.49;64.06
48800;BME280;34611;47.964;7.982;2023-04-27T11:36:57;96816.97;;;11.49;64.09
48800;BME280;34611;47.964;7.982;2023-04-27T11:44:03;96818.75;;;11.48;64.10
48800;BME280;34611;47.964;7.982;2023-04-27T11:51:03;96810.78;;;11.50;64.11
48800;BME280;34611;47.964;7.982;2023-04-27T11:58:04;96818.59;;;11.50;64.08
48800;BME280;34611;47.964;7.982;2023-04-27T12:05:05;96810.94;;;11.48;64.16
48800;BME280;34611;47.964;7.982;2023-04-27T12:12:06;96806.56;;;11.49;64.05
48800;BME280;34611;47.964;7.982;2023-04-27T12:19:06;96816.00;;;11.50;64.13
48800;BME280;34611;47.964;7.982;2023-04-27T12:26:07;96806.56;;;11.49;64.26
48800;BME280;34611;47.964;7.982;2023-04-27T12:33:07;96804.94;;;11.48;64.08
48800;BME280;34611;47.964;7.982;2023-04-27T12:40:10;96802.97;;;11.50;64.07
48800;BME280;34611;47.964;7.982;2023-04-27T12:47:10;96805.59;;;11.50;64.15
48800;BME280;34611;47.964;7.982;2023-04-27T12:54:10;96810.78;;;11.50;64.08
48800;BME280;34611;47.964;7.982;2023-04-27T13:01:11;96802.97;;;11.50;64.12
48800;BME280;34611;47.964;7.982;2023-04-27T13:08:15;96802.97;;;11.50;64.21
48800;BME280;34611;47.964;7.982;2023-04-27T13:15:16;96801.34;;;11.49;64.00
48800;BME280;34611;47.964;7.982;2023-04-27T13:22:17;96797.78;;;11.50;64.08
48800;BME280;34611;47.964;7.982;2023-04-27T13:29:17;96788.34;;;11.49;64.22
48800;BME280;34611;47.964;7.982;2023-04-27T13:36:17;96793.41;;;11.50;64.12
48800;BME280;34611;47.964;7.982;2023-04-27T13:43:17;96775.31;;;11.49;64.13
48800;BME280;34611;47.964;7.982;2023-04-27T13:50:18;96761.34;;;11.50;64.20
48800;BME280;34611;47.964;7.982;2023-04-27T13:57:18;96771.75;;;11.50;64.15
48800;BME280;34611;47.964;7.982;2023-04-27T14:04:18;96776.94;;;11.50;64.25
48800;BME280;34611;47.964;7.982;2023-04-27T14:11:18;96772.44;;;11.52;64.23
48800;BME280;34611;47.964;7.982;2023-04-27T14:18:19;96764.78;;;11.50;64.19
48800;BME280;34611;47.964;7.982;2023-04-27T14:25:20;96761.34;;;11.50;64.06
48800;BME280;34611;47.964;7.982;2023-04-27T14:32:21;96751.06;;;11.48;64.29
48800;BME280;34611;47.964;7.982;2023-04-27T14:39:21;96756.13;;;11.50;64.23
48800;BME280;34611;47.964;7.982;2023-04-27T14:46:22;96757.09;;;11.49;64.17
48800;BME280;34611;47.964;7.982;2023-04-27T14:53:22;96753.53;;;11.50;64.37
48800;BME280;34611;47.964;7.982;2023-04-27T15:00:24;96751.75;;;11.50;64.24
48800;BME280;34611;47.964;7.982;2023-04-27T15:07:24;96739.56;;;11.51;64.22
48800;BME280;34611;47.964;7.982;2023-04-27T15:14:25;96742.03;;;11.52;64.24
48800;BME280;34611;47.964;7.982;2023-04-27T15:21:25;96725.72;;;11.50;64.17
48800;BME280;34611;47.964;7.982;2023-04-27T15:28:25;96728.34;;;11.50;64.20
48800;BME280;34611;47.964;7.982;2023-04-27T15:35:26;96716.94;;;11.51;64.22
48800;BME280;34611;47.964;7.982;2023-04-27T15:42:26;96710.13;;;11.50;64.30
48800;BME280;34611;47.964;7.982;2023-04-27T15:49:26;96716.13;;;11.51;64.34
48800;BME280;34611;47.964;7.982;2023-04-27T15:56:27;96700.50;;;11.51;64.30
48800;BME280;34611;47.964;7.982;2023-04-27T16:03:27;96693.66;;;11.50;64.23
48800;BME280;34611;47.964;7.982;2023-04-27T16:10:27;96681.47;;;11.50;64.25
48800;BME280;34611;47.964;7.982;2023-04-27T16:17:29;96678.88;;;11.50;64.27
48800;BME280;34611;47.964;7.982;2023-04-27T16:24:32;96680.38;;;11.53;64.59
48800;BME280;34611;47.964;7.982;2023-04-27T16:31:32;96669.28;;;11.51;64.41
48800;BME280;34611;47.964;7.982;2023-04-27T16:38:32;96682.28;;;11.51;64.38
48800;BME280;34611;47.964;7.982;2023-04-27T16:45:32;96670.91;;;11.52;64.45
48800;BME280;34611;47.964;7.982;2023-04-27T16:52:33;96669.16;;;11.52;64.34
48800;BME280;34611;47.964;7.982;2023-04-27T16:59:33;96677.78;;;11.53;64.31
48800;BME280;34611;47.964;7.982;2023-04-27T17:06:33;96676.13;;;11.52;64.55
48800;BME280;34611;47.964;7.982;2023-04-27T17:13:33;96690.78;;;11.53;64.61
48800;BME280;34611;47.964;7.982;2023-04-27T17:20:34;96692.72;;;11.51;64.41
48800;BME280;34611;47.964;7.982;2023-04-27T17:27:34;96696.94;;;11.52;64.51
48800;BME280;34611;47.964;7.982;2023-04-27T17:34:35;96691.72;;;11.52;64.49
48800;BME280;34611;47.964;7.982;2023-04-27T17:41:35;96700.38;;;11.52;64.34
48800;BME280;34611;47.964;7.982;2023-04-27T17:48:42;96696.13;;;11.51;64.29
48800;BME280;34611;47.964;7.982;2023-04-27T17:55:43;96715.16;;;11.52;64.54
48800;BME280;34611;47.964;7.982;2023-04-27T18:02:44;96699.53;;;11.52;64.28
48800;BME280;34611;47.964;7.982;2023-04-27T18:09:45;96681.31;;;11.52;64.52
48800;BME280;34611;47.964;7.982;2023-04-27T18:16:45;96673.50;;;11.52;64.59
48800;BME280;34611;47.964;7.982;2023-04-27T18:23:46;96675.16;;;11.53;64.32
48800;BME280;34611;47.964;7.982;2023-04-27T18:30:46;96682.97;;;11.53;64.35
48800;BME280;34611;47.964;7.982;2023-04-27T18:37:47;96676.13;;;11.52;64.33
48800;BME280;34611;47.964;7.982;2023-04-27T18:44:47;96682.16;;;11.52;64.62
48800;BME280;34611;47.964;7.982;2023-04-27T18:51:47;96691.59;;;11.53;64.48
48800;BME280;34611;47.964;7.982;2023-04-27T18:58:48;96694.22;;;11.53;64.50
48800;BME280;34611;47.964;7.982;2023-04-27T19:05:48;96697.78;;;11.52;64.33
48800;BME280;34611;47.964;7.982;2023-04-27T19:12:50;96690.09;;;11.51;64.57
48800;BME280;34611;47.964;7.982;2023-04-27T19:19:50;96707.34;;;11.52;64.45
48800;BME280;34611;47.964;7.982;2023-04-27T19:26:50;96712.56;;;11.52;64.34
48800;BME280;34611;47.964;7.982;2023-04-27T19:33:51;96707.34;;;11.52;64.55
48800;BME280;34611;47.964;7.982;2023-04-27T19:40:51;96709.00;;;11.53;64.34
48800;BME280;34611;47.964;7.982;2023-04-27T19:47:51;96716.81;;;11.53;64.61
48800;BME280;34611;47.964;7.982;2023-04-27T19:54:53;96711.75;;;11.51;64.50
48800;BME280;34611;47.964;7.982;2023-04-27T20:01:53;96699.53;;;11.52;64.44
48800;BME280;34611;47.964;7.982;2023-04-27T20:08:53;96716.94;;;11.51;64.53
48800;BME280;34611;47.964;7.982;2023-04-27T20:15:54;96721.22;;;11.52;64.61
48800;BME280;34611;47.964;7.982;2023-04-27T20:22:54;96709.97;;;11.52;64.50
48800;BME280;34611;47.964;7.982;2023-04-27T20:29:55;96703.81;;;11.53;64.48
48800;BME280;34611;47.964;7.982;2023-04-27T20:36:55;96697.78;;;11.52;64.65
48800;BME280;34611;47.964;7.982;2023-04-27T20:43:56;96692.56;;;11.52;64.70
48800;BME280;34611;47.964;7.982;2023-04-27T20:50:57;96691.72;;;11.52;64.45
48800;BME280;34611;47.964;7.982;2023-04-27T20:57:57;96691.59;;;11.53;64.44
48800;BME280;34611;47.964;7.982;2023-04-27T21:04:58;96685.59;;;11.53;64.54
48800;BME280;34611;47.964;7.982;2023-04-27T21:11:58;96701.19;;;11.53;64.48
48800;BME280;34611;47.964;7.982;2023-04-27T21:18:58;96685.59;;;11.53;64.68
48800;BME280;34611;47.964;7.982;2023-04-27T21:25:58;96669.97;;;11.53;64.68
48800;BME280;34611;47.964;7.982;2023-04-27T21:32:59;96658.75;;;11.52;64.45
48800;BME280;34611;47.964;7.982;2023-04-27T21:39:59;96649.13;;;11.53;64.47
48800;BME280;34611;47.964;7.982;2023-04-27T21:46:59;96640.50;;;11.52;64.64
48800;BME280;34611;47.964;7.982;2023-04-27T21:54:00;96646.53;;;11.53;64.57
48800;BME280;34611;47.964;7.982;2023-04-27T22:01:00;96637.75;;;11.54;64.47
48800;BME280;34611;47.964;7.982;2023-04-27T22:08:02;96629.94;;;11.54;64.58
48800;BME280;34611;47.964;7.982;2023-04-27T22:15:02;96629.94;;;11.54;64.42
48800;BME280;34611;47.964;7.982;2023-04-27T22:22:02;96629.13;;;11.53;64.66
48800;BME280;34611;47.964;7.982;2023-04-27T22:29:03;96627.34;;;11.54;64.56
48800;BME280;34611;47.964;7.982;2023-04-27T22:36:03;96627.34;;;11.54;64.52
48800;BME280;34611;47.964;7.982;2023-04-27T22:43:04;96632.53;;;11.54;64.66
48800;BME280;34611;47.964;7.982;2023-04-27T22:50:05;96628.31;;;11.53;64.75
48800;BME280;34611;47.964;7.982;2023-04-27T22:57:06;96620.50;;;11.53;64.59
48800;BME280;34611;47.964;7.982;2023-04-27T23:04:07;96623.78;;;11.55;64.44
48800;BME280;34611;47.964;7.982;2023-04-27T23:11:07;96622.97;;;11.54;64.51
48800;BME280;34611;47.964;7.982;2023-04-27T23:18:08;96609.13;;;11.54;64.53
48800;BME280;34611;47.964;7.982;2023-04-27T23:25:08;96602.97;;;11.55;64.55
48800;BME280;34611;47.964;7.982;2023-04-27T23:32:09;96594.47;;;11.53;64.73
48800;BME280;34611;47.964;7.982;2023-04-27T23:39:09;96590.88;;;11.54;64.60
48800;BME280;34611;47.964;7.982;2023-04-27T23:46:09;96596.09;;;11.54;64.64
48800;BME280;34611;47.964;7.982;2023-04-27T23:53:09;96602.16;;;11.54;64.52
